createdAt,value
2018-02-24T00:00:49.419Z,36.55
2018-02-24T00:03:18.396Z,28.12
2018-02-24T00:05:47.407Z,32.42
2018-02-24T00:08:16.448Z,27.17
2018-02-24T00:10:45.588Z,24.77
2018-02-24T00:13:14.581Z,32.00
2018-02-24T00:15:43.562Z,29.05
2018-02-24T00:18:12.549Z,28.83
2018-02-24T00:20:41.563Z,29.25
2018-02-24T00:23:10.551Z,27.60
2018-02-24T00:25:39.538Z,29.12
2018-02-24T00:28:08.519Z,29.37
2018-02-24T00:30:37.504Z,36.25
2018-02-24T00:33:06.646Z,28.30
2018-02-24T00:35:35.636Z,32.58
2018-02-24T00:38:04.630Z,29.95
2018-02-24T00:40:33.623Z,28.20
2018-02-24T00:43:02.595Z,29.85
2018-02-24T00:45:31.589Z,32.10
2018-02-24T00:48:00.610Z,25.73
2018-02-24T00:50:29.598Z,33.88
2018-02-24T00:52:58.595Z,31.52
2018-02-24T00:55:27.726Z,26.77
2018-02-24T00:57:56.715Z,29.45
2018-02-24T01:00:25.733Z,34.72
2018-02-24T01:02:54.747Z,29.17
2018-02-24T01:05:23.727Z,30.70
2018-02-24T01:07:52.746Z,32.92
2018-02-24T01:10:21.711Z,38.47
2018-02-24T01:12:50.715Z,32.30
2018-02-24T01:15:19.692Z,31.40
2018-02-24T01:17:48.722Z,31.87
2018-02-24T01:20:17.718Z,31.10
2018-02-24T01:22:46.708Z,25.05
2018-02-24T01:25:15.706Z,35.17
2018-02-24T01:27:44.791Z,25.58
2018-02-24T01:30:13.774Z,29.00
2018-02-24T01:32:42.771Z,27.33
2018-02-24T01:35:11.763Z,24.75
2018-02-24T01:37:40.893Z,28.00
2018-02-24T01:40:09.989Z,29.55
2018-02-24T01:42:38.965Z,21.58
2018-02-24T01:45:07.942Z,32.50
2018-02-24T01:47:36.917Z,28.25
2018-02-24T01:50:05.903Z,29.37
2018-02-24T01:52:34.908Z,31.42
2018-02-24T01:55:03.913Z,28.15
2018-02-24T01:57:32.917Z,38.38
2018-02-24T02:00:01.947Z,25.62
2018-02-24T02:02:31.031Z,24.85
2018-02-24T02:05:00.012Z,24.15
2018-02-24T02:07:28.987Z,25.15
2018-02-24T02:09:57.968Z,25.45
2018-02-24T02:12:26.952Z,27.62
2018-02-24T02:14:55.929Z,25.37
2018-02-24T02:17:24.914Z,34.60
2018-02-24T02:19:53.895Z,24.00
2018-02-24T02:22:22.868Z,30.55
2018-02-24T02:24:51.875Z,28.58
2018-02-24T02:27:20.907Z,29.37
2018-02-24T02:29:49.868Z,24.15
2018-02-24T02:32:18.838Z,26.42
2018-02-24T02:34:47.856Z,21.33
2018-02-24T02:37:16.836Z,29.30
2018-02-24T02:39:45.827Z,28.33
2018-02-24T02:42:14.819Z,28.25
2018-02-24T02:44:43.788Z,27.35
2018-02-24T02:47:12.957Z,29.35
2018-02-24T02:49:41.934Z,29.08
2018-02-24T02:52:10.919Z,32.22
2018-02-24T02:54:39.900Z,28.02
2018-02-24T02:57:08.889Z,25.42
2018-02-24T02:59:37.871Z,28.75
2018-02-24T03:02:06.843Z,32.05
2018-02-24T03:04:35.849Z,24.52
2018-02-24T03:07:04.883Z,26.45
2018-02-24T03:09:34.823Z,29.85
2018-02-24T03:12:03.799Z,29.30
2018-02-24T03:14:32.778Z,32.20
2018-02-24T03:17:01.760Z,24.65
2018-02-24T03:19:30.741Z,30.73
2018-02-24T03:21:59.744Z,28.48
2018-02-24T03:24:28.716Z,28.25
2018-02-24T03:26:57.899Z,26.45
2018-02-24T03:29:26.870Z,18.40
2018-02-24T03:31:55.851Z,30.33
2018-02-24T03:34:24.830Z,37.92
2018-02-24T03:36:53.819Z,34.60
2018-02-24T03:39:22.803Z,30.52
2018-02-24T03:41:51.823Z,21.87
2018-02-24T03:44:20.814Z,30.67
2018-02-24T03:46:49.811Z,29.17
2018-02-24T03:49:18.815Z,29.30
2018-02-24T03:51:47.805Z,31.73
2018-02-24T03:54:16.894Z,25.85
2018-02-24T03:56:45.896Z,22.20
2018-02-24T03:59:14.886Z,24.55
2018-02-24T04:01:43.879Z,47.00
2018-02-24T04:04:12.870Z,32.80
2018-02-24T04:06:41.842Z,29.40
2018-02-24T04:09:10.818Z,28.70
2018-02-24T04:11:39.823Z,25.42
2018-02-24T04:14:08.830Z,28.33
2018-02-24T04:16:37.936Z,33.22
2018-02-24T04:19:06.914Z,28.95
2018-02-24T04:21:35.890Z,40.35
2018-02-24T04:24:04.872Z,25.80
2018-02-24T04:26:33.852Z,26.40
2018-02-24T04:29:02.830Z,27.73
2018-02-24T04:31:31.804Z,27.85
2018-02-24T04:34:00.779Z,28.42
2018-02-24T04:36:29.751Z,36.70
2018-02-24T04:38:58.770Z,31.58
2018-02-24T04:41:27.875Z,28.00
2018-02-24T04:43:56.974Z,26.37
2018-02-24T04:46:25.954Z,23.30
2018-02-24T04:48:54.964Z,26.12
2018-02-24T04:51:23.946Z,29.33
2018-02-24T04:53:52.922Z,20.10
2018-02-24T04:56:21.915Z,24.33
2018-02-24T04:58:50.940Z,29.37
2018-02-24T05:01:20.021Z,22.33
2018-02-24T05:03:49.002Z,32.22
2018-02-24T05:06:17.974Z,19.37
2018-02-24T05:08:46.966Z,30.98
2018-02-24T05:11:15.974Z,25.75
2018-02-24T05:13:44.948Z,30.80
2018-02-24T05:16:13.933Z,26.58
2018-02-24T05:18:42.921Z,26.12
2018-02-24T05:21:11.903Z,21.27
2018-02-24T05:23:41.087Z,32.20
2018-02-24T05:26:10.066Z,25.45
2018-02-24T05:28:39.084Z,25.55
2018-02-24T05:31:08.052Z,26.58
2018-02-24T05:33:37.030Z,26.20
2018-02-24T05:36:06.011Z,29.05
2018-02-24T05:38:35.070Z,22.55
2018-02-24T05:41:04.047Z,27.05
2018-02-24T05:43:33.035Z,20.37
2018-02-24T05:46:02.188Z,22.17
2018-02-24T05:48:31.172Z,26.77
2018-02-24T05:51:00.146Z,25.58
2018-02-24T05:53:29.134Z,28.90
2018-02-24T05:55:58.129Z,26.17
2018-02-24T05:58:27.107Z,22.90
2018-02-24T06:00:56.089Z,26.65
2018-02-24T06:03:25.071Z,23.75
2018-02-24T06:05:54.059Z,28.15
2018-02-24T06:08:23.183Z,33.08
2018-02-24T06:10:52.178Z,28.98
2018-02-24T06:13:21.187Z,30.83
2018-02-24T06:15:50.166Z,27.75
2018-02-24T06:18:19.150Z,26.08
2018-02-24T06:20:48.147Z,27.92
2018-02-24T06:23:17.177Z,23.65
2018-02-24T06:25:46.158Z,29.12
2018-02-24T06:28:15.146Z,21.90
2018-02-24T06:30:44.270Z,33.38
2018-02-24T06:33:13.270Z,28.33
2018-02-24T06:35:42.265Z,22.67
2018-02-24T06:38:11.265Z,22.90
2018-02-24T06:40:40.295Z,30.48
2018-02-24T06:43:09.285Z,34.78
2018-02-24T06:45:38.278Z,21.60
2018-02-24T06:48:07.367Z,46.00
2018-02-24T06:50:36.409Z,24.02
2018-02-24T06:53:05.481Z,27.08
2018-02-24T06:55:34.457Z,30.08
2018-02-24T06:58:03.422Z,28.80
2018-02-24T07:00:32.443Z,26.67
2018-02-24T07:03:01.409Z,26.00
2018-02-24T07:05:30.403Z,26.62
2018-02-24T07:07:59.381Z,31.17
2018-02-24T07:10:28.380Z,26.90
2018-02-24T07:12:57.375Z,42.97
2018-02-24T07:15:26.354Z,27.40
2018-02-24T07:17:56.344Z,25.17
2018-02-24T07:20:25.332Z,28.33
2018-02-24T07:22:54.310Z,24.12
2018-02-24T07:25:23.314Z,26.55
2018-02-24T07:27:52.306Z,27.48
2018-02-24T07:30:21.352Z,31.35
2018-02-24T07:32:50.413Z,30.60
2018-02-24T07:35:19.392Z,28.80
2018-02-24T07:37:48.404Z,30.75
2018-02-24T07:40:17.390Z,26.52
2018-02-24T07:42:46.404Z,33.08
2018-02-24T07:45:15.417Z,26.40
2018-02-24T07:47:44.401Z,32.20
2018-02-24T07:50:13.386Z,37.00
2018-02-24T07:52:42.380Z,32.92
2018-02-24T07:55:11.398Z,24.85
2018-02-24T07:57:40.392Z,34.92
2018-02-24T08:00:09.474Z,33.30
2018-02-24T08:02:38.482Z,29.63
2018-02-24T08:05:07.450Z,23.23
2018-02-24T08:07:36.430Z,29.05
2018-02-24T08:10:05.442Z,26.70
2018-02-24T08:12:34.415Z,30.00
2018-02-24T08:15:03.415Z,27.42
2018-02-24T08:17:32.443Z,28.60
2018-02-24T08:20:01.451Z,30.83
2018-02-24T08:22:30.495Z,33.30
2018-02-24T08:24:59.467Z,29.27
2018-02-24T08:27:32.811Z,28.25
2018-02-24T08:30:01.799Z,26.92
2018-02-24T08:32:30.789Z,22.75
2018-02-24T08:34:59.783Z,24.85
2018-02-24T08:37:28.761Z,23.45
2018-02-24T08:39:57.804Z,27.30
2018-02-24T08:42:26.800Z,31.48
2018-02-24T08:44:55.792Z,32.08
2018-02-24T08:47:24.829Z,26.97
2018-02-24T08:49:53.843Z,22.27
2018-02-24T08:52:22.835Z,30.27
2018-02-24T08:54:51.857Z,24.00
2018-02-24T08:57:20.835Z,23.60
2018-02-24T08:59:49.806Z,22.23
2018-02-24T09:02:18.224Z,25.80
2018-02-24T09:04:46.016Z,19.80
2018-02-24T09:07:13.659Z,19.83
2018-02-24T09:09:41.783Z,27.57
2018-02-24T09:12:09.478Z,25.53
2018-02-24T09:14:37.113Z,24.67
2018-02-24T09:17:04.744Z,18.83
2018-02-24T09:19:32.382Z,31.10
2018-02-24T09:22:00.788Z,30.10
2018-02-24T09:24:28.439Z,20.40
2018-02-24T09:26:56.207Z,17.67
2018-02-24T09:29:23.837Z,21.80
2018-02-24T09:31:51.656Z,22.37
2018-02-24T09:34:19.341Z,21.33
2018-02-24T09:36:47.000Z,19.23
2018-02-24T09:39:45.887Z,18.50
2018-02-24T09:42:13.995Z,18.93
2018-02-24T09:44:42.201Z,20.03
2018-02-24T09:47:10.390Z,15.23
2018-02-24T09:49:38.613Z,17.03
2018-02-24T09:52:06.735Z,16.90
2018-02-24T09:54:34.987Z,14.60
2018-02-24T09:57:03.904Z,16.70
2018-02-24T09:59:32.038Z,19.97
2018-02-24T10:02:00.189Z,14.30
2018-02-24T10:04:28.338Z,17.53
2018-02-24T10:06:56.441Z,16.60
2018-02-24T10:09:24.582Z,16.30
2018-02-24T10:11:52.700Z,14.30
2018-02-24T10:14:20.866Z,19.77
2018-02-24T10:16:50.303Z,11.67
2018-02-24T10:19:18.402Z,10.97
2018-02-24T10:21:46.658Z,8.00
2018-02-24T10:24:15.557Z,13.20
2018-02-24T10:26:43.718Z,8.57
2018-02-24T10:29:11.831Z,11.57
2018-02-24T10:31:41.755Z,10.13
2018-02-24T10:34:09.885Z,11.20
2018-02-24T10:36:38.899Z,13.77
2018-02-24T10:39:07.080Z,10.60
2018-02-24T10:41:35.284Z,18.60
2018-02-24T10:44:04.391Z,10.10
2018-02-24T10:46:32.534Z,11.47
2018-02-24T10:49:12.480Z,9.43
2018-02-24T10:51:40.733Z,9.33
2018-02-24T10:54:09.653Z,9.93
2018-02-24T10:56:37.832Z,10.10
2018-02-24T10:59:05.997Z,8.00
2018-02-24T11:01:34.098Z,9.23
2018-02-24T11:04:02.224Z,11.53
2018-02-24T11:06:30.427Z,10.10
2018-02-24T11:08:58.624Z,12.90
2018-02-24T11:11:26.741Z,9.70
2018-02-24T11:13:54.961Z,11.83
2018-02-24T11:16:23.085Z,17.13
2018-02-24T11:18:52.960Z,9.70
2018-02-24T11:21:21.105Z,8.17
2018-02-24T11:23:49.217Z,12.23
2018-02-24T11:26:19.106Z,10.30
2018-02-24T11:28:47.506Z,9.83
2018-02-24T11:31:17.549Z,10.70
2018-02-24T11:33:45.656Z,12.80
2018-02-24T11:36:14.570Z,15.23
2018-02-24T11:38:42.753Z,9.00
2018-02-24T11:41:10.842Z,10.90
2018-02-24T11:43:39.089Z,8.73
2018-02-24T11:46:07.221Z,6.60
2018-02-24T11:48:35.516Z,14.57
2018-02-24T11:51:03.647Z,10.43
2018-02-24T11:53:31.962Z,7.00
2018-02-24T11:56:00.834Z,11.93
2018-02-24T11:58:28.970Z,14.03
2018-02-24T12:00:57.204Z,10.80
2018-02-24T12:03:26.046Z,8.73
2018-02-24T12:05:54.858Z,10.57
2018-02-24T12:08:23.251Z,13.63
2018-02-24T12:10:52.161Z,10.93
2018-02-24T12:13:20.509Z,12.17
2018-02-24T12:15:49.047Z,11.60
2018-02-24T12:18:18.084Z,12.43
2018-02-24T12:20:47.722Z,10.20
2018-02-24T12:23:17.182Z,8.47
2018-02-24T12:25:46.647Z,9.67
2018-02-24T12:28:17.335Z,11.80
2018-02-24T12:33:56.743Z,11.37
2018-02-24T12:36:26.972Z,8.10
2018-02-24T12:38:56.064Z,9.77
2018-02-24T12:41:25.120Z,8.90
2018-02-24T12:43:54.171Z,6.47
2018-02-24T12:46:23.256Z,8.80
2018-02-24T12:48:52.333Z,6.23
2018-02-24T12:51:22.157Z,10.30
2018-02-24T12:53:51.278Z,6.97
2018-02-24T12:56:20.638Z,5.17
2018-02-24T12:58:50.270Z,5.87
2018-02-24T13:01:20.430Z,4.90
2018-02-24T13:03:49.480Z,5.80
2018-02-24T13:06:18.663Z,4.97
2018-02-24T13:08:47.732Z,3.30
2018-02-24T13:11:16.983Z,4.40
2018-02-24T13:13:46.056Z,4.23
2018-02-24T13:16:15.124Z,5.53
2018-02-24T13:18:44.214Z,3.30
2018-02-24T13:21:13.316Z,2.50
2018-02-24T13:23:42.369Z,3.57
2018-02-24T13:26:11.435Z,5.20
2018-02-24T13:28:40.481Z,2.80
2018-02-24T13:31:09.589Z,5.43
2018-02-24T13:33:38.728Z,5.23
2018-02-24T13:36:08.425Z,9.23
2018-02-24T13:38:37.532Z,4.57
2018-02-24T13:41:08.004Z,3.67
2018-02-24T13:43:37.484Z,3.07
2018-02-24T13:46:06.875Z,4.47
